createdAt,value
2022-07-29T00:02:00.535Z,20.83
2022-07-29T00:04:28.184Z,20.83
2022-07-29T00:06:57.253Z,20.84
2022-07-29T00:09:25.176Z,20.74
2022-07-29T00:11:52.924Z,20.49
2022-07-29T00:14:20.624Z,20.47
2022-07-29T00:16:48.331Z,20.33
2022-07-29T00:19:16.053Z,20.34
2022-07-29T00:21:43.836Z,20.41
2022-07-29T00:24:13.236Z,20.30
2022-07-29T00:26:41.204Z,20.35
2022-07-29T00:31:56.459Z,20.39
2022-07-29T00:34:41.629Z,20.50
2022-07-29T00:37:09.383Z,20.64
2022-07-29T00:39:38.513Z,20.71
2022-07-29T00:42:06.881Z,20.72
2022-07-29T00:44:38.756Z,20.65
2022-07-29T00:47:07.097Z,20.56
2022-07-29T00:49:35.756Z,20.58
2022-07-29T00:52:04.777Z,20.48
2022-07-29T00:54:32.710Z,20.26
2022-07-29T00:57:02.577Z,20.41
2022-07-29T00:59:34.906Z,20.40
2022-07-29T01:02:03.345Z,20.16
2022-07-29T01:04:32.253Z,20.20
2022-07-29T01:07:01.400Z,20.35
2022-07-29T01:09:43.139Z,20.40
2022-07-29T01:12:18.782Z,20.12
2022-07-29T01:14:47.755Z,20.28
2022-07-29T01:17:22.906Z,20.10
2022-07-29T01:19:58.620Z,19.99
2022-07-29T01:22:37.318Z,19.82
2022-07-29T01:25:21.538Z,19.52
2022-07-29T01:28:15.515Z,19.38
2022-07-29T01:30:48.886Z,19.28
2022-07-29T01:33:43.708Z,19.24
2022-07-29T01:36:16.600Z,19.40
2022-07-29T01:38:51.026Z,19.54
2022-07-29T01:41:22.250Z,19.54
2022-07-29T01:43:55.653Z,19.58
2022-07-29T01:46:29.393Z,19.50
2022-07-29T01:49:02.064Z,19.39
2022-07-29T01:51:35.122Z,19.30
2022-07-29T01:54:08.871Z,19.33
2022-07-29T01:56:38.490Z,19.04
2022-07-29T01:59:08.810Z,19.00
2022-07-29T02:01:42.876Z,19.08
2022-07-29T02:04:13.549Z,19.17
2022-07-29T02:07:00.910Z,19.14
2022-07-29T02:09:30.689Z,19.52
2022-07-29T02:11:59.778Z,19.49
2022-07-29T02:14:32.436Z,19.71
2022-07-29T02:17:03.968Z,19.73
2022-07-29T02:19:33.932Z,19.73
2022-07-29T02:22:02.987Z,19.80
2022-07-29T02:24:32.670Z,19.77
2022-07-29T02:27:02.204Z,19.64
2022-07-29T02:29:32.209Z,19.60
2022-07-29T02:32:03.630Z,19.26
2022-07-29T02:34:32.941Z,19.08
2022-07-29T02:37:01.853Z,18.96
2022-07-29T02:39:31.325Z,18.68
2022-07-29T02:42:05.554Z,18.67
2022-07-29T02:44:34.812Z,18.77
2022-07-29T02:47:12.464Z,18.39
2022-07-29T02:49:44.869Z,18.16
2022-07-29T02:52:20.453Z,17.99
2022-07-29T02:54:53.706Z,18.01
2022-07-29T02:57:27.639Z,18.00
2022-07-29T03:00:00.491Z,17.94
2022-07-29T03:02:33.355Z,18.08
2022-07-29T03:05:03.844Z,17.91
2022-07-29T03:07:33.383Z,17.92
2022-07-29T03:10:01.919Z,17.80
2022-07-29T03:12:31.277Z,17.69
2022-07-29T03:15:01.144Z,17.49
2022-07-29T03:17:32.522Z,17.40
2022-07-29T03:20:01.375Z,17.34
2022-07-29T03:22:29.691Z,17.39
2022-07-29T03:24:57.385Z,17.21
2022-07-29T03:27:25.364Z,17.22
2022-07-29T03:29:53.094Z,17.01
2022-07-29T03:32:23.882Z,16.92
2022-07-29T03:34:54.648Z,16.90
2022-07-29T03:37:22.368Z,16.84
2022-07-29T03:39:53.163Z,16.77
2022-07-29T03:42:23.001Z,16.72
2022-07-29T03:44:54.496Z,16.83
2022-07-29T03:47:43.721Z,16.79
2022-07-29T03:50:17.237Z,16.74
2022-07-29T03:52:45.340Z,16.79
2022-07-29T03:55:14.186Z,16.77
2022-07-29T03:57:42.309Z,16.68
2022-07-29T04:00:11.167Z,16.59
2022-07-29T04:02:40.960Z,16.58
2022-07-29T04:05:14.119Z,16.63
2022-07-29T04:07:45.853Z,16.74
2022-07-29T04:10:13.900Z,16.60
2022-07-29T04:12:42.332Z,16.59
2022-07-29T04:15:10.800Z,16.56
2022-07-29T04:17:38.839Z,16.42
2022-07-29T04:20:07.546Z,16.41
2022-07-29T04:22:35.319Z,16.44
2022-07-29T04:25:04.812Z,16.48
2022-07-29T04:27:32.604Z,16.55
2022-07-29T04:30:00.757Z,16.66
2022-07-29T04:32:28.568Z,16.63
2022-07-29T04:34:56.457Z,16.58
2022-07-29T04:37:24.195Z,16.67
2022-07-29T04:39:52.004Z,16.80
2022-07-29T04:42:27.826Z,16.71
2022-07-29T04:44:57.183Z,16.75
2022-07-29T04:47:24.965Z,16.87
2022-07-29T04:49:52.654Z,16.90
2022-07-29T04:52:20.351Z,16.97
2022-07-29T04:54:48.233Z,16.94
2022-07-29T04:57:16.114Z,17.05
2022-07-29T04:59:45.739Z,17.08
2022-07-29T05:02:13.449Z,17.04
2022-07-29T05:04:41.223Z,17.09
2022-07-29T05:07:08.924Z,17.03
2022-07-29T05:09:36.868Z,17.20
2022-07-29T05:12:04.833Z,17.25
2022-07-29T05:14:34.009Z,17.26
2022-07-29T05:17:03.124Z,17.37
2022-07-29T05:19:30.826Z,17.45
2022-07-29T05:21:58.604Z,17.62
2022-07-29T05:24:26.242Z,17.82
2022-07-29T05:26:54.359Z,18.01
2022-07-29T05:29:43.770Z,18.23
2022-07-29T05:32:11.220Z,18.56
2022-07-29T05:34:51.216Z,18.70
2022-07-29T05:37:20.563Z,18.86
2022-07-29T05:39:56.190Z,19.10
2022-07-29T05:42:25.417Z,19.16
2022-07-29T05:44:53.530Z,19.71
2022-07-29T05:47:22.899Z,19.78
2022-07-29T05:49:51.481Z,19.71
2022-07-29T05:52:19.390Z,19.84
2022-07-29T05:54:47.513Z,20.19
2022-07-29T05:57:17.790Z,20.68
2022-07-29T05:59:45.545Z,20.80
2022-07-29T06:02:13.568Z,21.75
2022-07-29T06:04:42.934Z,21.71
2022-07-29T06:07:10.748Z,21.56
2022-07-29T06:09:38.497Z,21.22
2022-07-29T06:12:06.710Z,21.43
2022-07-29T06:14:34.522Z,21.58
2022-07-29T06:17:02.575Z,21.91
2022-07-29T06:19:30.373Z,22.53
2022-07-29T06:21:59.580Z,22.85
2022-07-29T06:24:27.367Z,23.07
2022-07-29T06:26:55.141Z,22.89
2022-07-29T06:29:22.908Z,23.04
2022-07-29T06:31:50.666Z,22.82
2022-07-29T06:34:18.712Z,23.05
2022-07-29T06:36:47.120Z,23.15
2022-07-29T06:39:17.362Z,23.45
2022-07-29T06:41:48.821Z,23.65
2022-07-29T06:44:17.208Z,23.70
2022-07-29T06:46:45.630Z,23.74
2022-07-29T06:49:14.972Z,23.85
2022-07-29T06:51:42.725Z,23.92
2022-07-29T06:54:10.432Z,24.05
2022-07-29T06:56:42.172Z,23.45
2022-07-29T06:59:11.703Z,23.40
2022-07-29T07:01:40.251Z,23.47
2022-07-29T07:04:09.715Z,23.53
2022-07-29T07:06:37.823Z,23.89
2022-07-29T07:09:06.138Z,23.98
2022-07-29T07:11:33.977Z,24.50
2022-07-29T07:14:04.251Z,24.57
2022-07-29T07:16:33.137Z,24.82
2022-07-29T07:19:01.332Z,24.90
2022-07-29T07:21:30.458Z,25.09
2022-07-29T07:23:58.486Z,24.65
2022-07-29T07:26:26.270Z,24.68
2022-07-29T07:28:54.032Z,24.66
2022-07-29T07:31:23.015Z,24.89
2022-07-29T07:33:50.565Z,25.53
2022-07-29T07:36:18.191Z,25.26
2022-07-29T07:38:45.818Z,25.63
2022-07-29T07:41:13.586Z,26.33
2022-07-29T07:43:41.286Z,26.82
2022-07-29T07:46:09.148Z,26.77
2022-07-29T07:48:38.460Z,26.75
2022-07-29T07:51:06.216Z,26.03
2022-07-29T07:53:33.947Z,25.58
2022-07-29T07:56:11.494Z,25.31
2022-07-29T07:58:40.474Z,25.52
2022-07-29T08:01:08.535Z,25.89
2022-07-29T08:03:36.556Z,25.82
2022-07-29T08:06:06.367Z,26.39
2022-07-29T08:08:34.552Z,26.94
2022-07-29T08:11:06.863Z,27.40
2022-07-29T08:13:36.740Z,27.31
2022-07-29T08:16:12.542Z,28.09
2022-07-29T08:21:15.036Z,28.85
2022-07-29T08:23:54.352Z,28.26
2022-07-29T08:26:26.748Z,28.63
2022-07-29T08:28:54.873Z,28.30
2022-07-29T08:31:22.659Z,28.14
2022-07-29T08:33:50.503Z,28.02
2022-07-29T08:36:21.821Z,28.04
2022-07-29T08:38:50.490Z,27.98
2022-07-29T08:41:20.080Z,27.22
2022-07-29T08:43:48.309Z,27.27
2022-07-29T08:46:16.354Z,26.75
2022-07-29T08:48:44.465Z,26.96
2022-07-29T08:51:16.702Z,26.70
2022-07-29T08:53:49.202Z,27.23
2022-07-29T08:56:19.008Z,28.11
2022-07-29T08:58:51.844Z,28.96
2022-07-29T09:01:35.911Z,28.92
2022-07-29T09:04:11.593Z,29.44
2022-07-29T09:06:44.278Z,29.59
2022-07-29T09:09:14.770Z,29.10
2022-07-29T09:11:43.464Z,28.50
2022-07-29T09:14:14.372Z,28.78
2022-07-29T09:16:59.648Z,28.09
2022-07-29T09:19:31.542Z,28.34
2022-07-29T09:22:00.157Z,28.62
2022-07-29T09:24:51.606Z,28.83
2022-07-29T09:27:27.825Z,28.19
2022-07-29T09:30:00.522Z,28.00
2022-07-29T09:32:29.123Z,28.10
2022-07-29T09:35:21.694Z,28.13
2022-07-29T09:37:50.430Z,28.52
2022-07-29T09:40:20.892Z,28.10
2022-07-29T09:42:51.296Z,28.37
2022-07-29T09:45:29.977Z,28.18
2022-07-29T09:48:01.245Z,28.32
2022-07-29T09:50:40.427Z,28.67
2022-07-29T09:53:10.344Z,28.82
2022-07-29T09:55:51.796Z,29.20
2022-07-29T09:58:20.935Z,29.37
2022-07-29T10:00:50.628Z,29.43
2022-07-29T10:03:19.622Z,29.41
2022-07-29T10:05:48.345Z,29.53
2022-07-29T10:08:26.768Z,29.29
2022-07-29T10:11:11.569Z,29.71
2022-07-29T10:13:40.307Z,29.98
2022-07-29T10:16:08.431Z,29.79
2022-07-29T10:18:36.613Z,29.56
2022-07-29T10:21:04.456Z,29.58
2022-07-29T10:23:46.481Z,30.05
2022-07-29T10:26:18.377Z,30.35
2022-07-29T10:28:46.553Z,30.59
2022-07-29T10:31:22.936Z,30.42
2022-07-29T10:34:05.015Z,30.22
2022-07-29T10:36:47.540Z,29.62
2022-07-29T10:39:41.927Z,29.05
2022-07-29T10:42:20.400Z,29.79
2022-07-29T10:45:01.492Z,31.16
2022-07-29T10:47:29.704Z,32.38
2022-07-29T10:49:59.176Z,33.00
2022-07-29T10:52:58.525Z,33.35
2022-07-29T10:55:36.252Z,32.86
2022-07-29T10:58:19.051Z,31.88
2022-07-29T11:00:49.414Z,31.50
2022-07-29T11:03:50.545Z,30.35
2022-07-29T11:06:26.967Z,30.28
2022-07-29T11:09:17.340Z,30.35
2022-07-29T11:15:02.652Z,30.91
2022-07-29T11:17:47.137Z,30.87
2022-07-29T11:20:39.302Z,31.77
2022-07-29T11:23:33.774Z,31.92
2022-07-29T11:26:23.074Z,31.31
2022-07-29T11:29:20.962Z,31.59
2022-07-29T11:31:55.916Z,31.24
2022-07-29T11:34:28.097Z,31.30
2022-07-29T11:37:23.259Z,30.54
2022-07-29T11:40:20.181Z,30.93
2022-07-29T11:45:48.361Z,30.56
2022-07-29T11:48:29.340Z,30.63
2022-07-29T11:51:01.271Z,30.68
2022-07-29T11:53:32.328Z,31.22
2022-07-29T11:56:02.693Z,31.33
2022-07-29T11:58:32.219Z,31.34
2022-07-29T12:01:04.185Z,31.21
2022-07-29T12:03:36.925Z,30.95
2022-07-29T12:06:13.419Z,31.14
2022-07-29T12:07:01.821Z,31.22
2022-07-29T12:08:44.213Z,31.30
2022-07-29T12:11:21.323Z,30.97
2022-07-29T12:13:50.173Z,31.03
2022-07-29T12:16:26.033Z,31.12
2022-07-29T12:19:00.341Z,30.62
2022-07-29T12:21:29.425Z,30.82
2022-07-29T12:24:04.802Z,30.41
2022-07-29T12:26:36.947Z,30.72
2022-07-29T12:29:11.511Z,30.63
2022-07-29T12:31:48.692Z,30.46
2022-07-29T12:34:18.313Z,30.11
2022-07-29T12:36:46.382Z,30.36
2022-07-29T12:39:14.460Z,30.10
2022-07-29T12:41:42.218Z,29.83
2022-07-29T12:44:09.988Z,29.91
2022-07-29T12:46:37.950Z,30.43
2022-07-29T12:49:07.675Z,31.18
2022-07-29T12:51:38.340Z,31.37
2022-07-29T12:54:11.225Z,32.03
2022-07-29T12:56:43.527Z,31.93
2022-07-29T12:59:17.456Z,31.40
2022-07-29T13:01:46.037Z,31.47
2022-07-29T13:04:26.232Z,31.82
2022-07-29T13:07:04.501Z,31.68
2022-07-29T13:09:43.887Z,31.30
2022-07-29T13:12:13.384Z,31.04
2022-07-29T13:14:42.903Z,30.89
2022-07-29T13:17:13.237Z,30.82
2022-07-29T13:19:42.376Z,31.04
2022-07-29T13:22:11.942Z,30.76
2022-07-29T13:24:50.418Z,30.94
2022-07-29T13:27:18.509Z,31.16
2022-07-29T13:29:46.362Z,31.14
2022-07-29T13:32:14.346Z,31.48
2022-07-29T13:34:42.799Z,31.76
2022-07-29T13:37:12.303Z,31.51
2022-07-29T13:39:40.790Z,31.50
2022-07-29T13:42:11.032Z,31.67
2022-07-29T13:44:39.078Z,31.69
2022-07-29T13:47:07.389Z,31.45
2022-07-29T13:49:35.416Z,31.18
2022-07-29T13:52:03.558Z,31.24
2022-07-29T13:54:32.700Z,31.27
2022-07-29T13:57:00.472Z,31.87
2022-07-29T13:59:28.272Z,32.01
2022-07-29T14:01:56.298Z,31.73
2022-07-29T14:04:25.059Z,32.11
2022-07-29T14:06:53.159Z,31.88
2022-07-29T14:09:22.264Z,32.36
2022-07-29T14:11:52.304Z,32.88
2022-07-29T14:14:20.276Z,33.10
2022-07-29T14:16:52.198Z,33.36
2022-07-29T14:19:20.292Z,32.93
2022-07-29T14:21:48.088Z,32.98
2022-07-29T14:24:21.511Z,32.17
2022-07-29T14:26:52.179Z,32.00
2022-07-29T14:29:19.934Z,32.32
2022-07-29T14:31:47.631Z,31.82
2022-07-29T14:34:16.415Z,31.93
2022-07-29T14:36:44.278Z,32.17
2022-07-29T14:39:12.040Z,32.15
2022-07-29T14:41:39.851Z,32.14
2022-07-29T14:44:09.058Z,31.91
2022-07-29T14:46:36.804Z,32.09
2022-07-29T14:49:04.611Z,31.71
2022-07-29T14:51:34.865Z,31.54
2022-07-29T14:54:02.678Z,31.33
2022-07-29T14:56:40.863Z,31.22
2022-07-29T14:59:16.235Z,30.89
2022-07-29T15:01:44.202Z,30.79
2022-07-29T15:04:15.623Z,30.83
2022-07-29T15:06:44.031Z,31.17
2022-07-29T15:09:11.745Z,31.03
2022-07-29T15:11:39.630Z,31.14
2022-07-29T15:14:07.557Z,31.18
2022-07-29T15:16:38.032Z,31.73
2022-07-29T15:19:06.695Z,31.79
2022-07-29T15:21:34.455Z,31.98
2022-07-29T15:24:02.192Z,31.85
2022-07-29T15:26:30.096Z,32.16
2022-07-29T15:28:57.997Z,32.88
2022-07-29T15:31:25.947Z,32.81
2022-07-29T15:33:58.705Z,32.41
2022-07-29T15:36:50.840Z,32.09
2022-07-29T15:39:16.101Z,32.44
2022-07-29T15:41:43.856Z,32.21
2022-07-29T15:44:11.591Z,32.22
2022-07-29T15:46:57.272Z,32.43
2022-07-29T15:49:47.970Z,32.34
2022-07-29T15:52:18.942Z,32.20
2022-07-29T15:54:47.213Z,32.01
2022-07-29T15:57:14.969Z,31.76
2022-07-29T15:59:43.167Z,31.66
2022-07-29T16:02:11.181Z,31.81
2022-07-29T16:04:40.334Z,31.38
2022-07-29T16:07:08.461Z,31.41
2022-07-29T16:09:36.134Z,31.68
2022-07-29T16:12:05.248Z,31.35
2022-07-29T16:14:42.899Z,31.43
2022-07-29T16:17:14.708Z,31.40
2022-07-29T16:19:45.336Z,31.64
2022-07-29T16:22:13.306Z,31.46
2022-07-29T16:24:41.710Z,31.37
2022-07-29T16:27:09.602Z,31.39
2022-07-29T16:29:37.824Z,31.02
2022-07-29T16:32:06.289Z,30.79
2022-07-29T16:34:34.412Z,30.64
2022-07-29T16:37:03.775Z,30.80
2022-07-29T16:39:32.107Z,30.96
2022-07-29T16:42:01.539Z,30.93
2022-07-29T16:44:30.842Z,30.84
2022-07-29T16:46:59.993Z,31.07
2022-07-29T16:49:28.515Z,30.81
2022-07-29T16:51:56.252Z,30.57
2022-07-29T16:54:25.262Z,30.21
2022-07-29T16:56:52.980Z,30.39
2022-07-29T16:59:20.676Z,30.69
2022-07-29T17:01:48.771Z,30.45
2022-07-29T17:04:16.695Z,30.56
2022-07-29T17:06:44.514Z,30.54
2022-07-29T17:09:15.042Z,30.39
2022-07-29T17:11:53.111Z,30.48
2022-07-29T17:14:24.084Z,30.65
2022-07-29T17:17:00.431Z,30.49
2022-07-29T17:19:30.392Z,30.42
2022-07-29T17:22:08.954Z,30.42
2022-07-29T17:24:40.215Z,30.23
2022-07-29T17:27:10.580Z,29.95
2022-07-29T17:29:38.880Z,29.88
2022-07-29T17:32:08.191Z,29.88
2022-07-29T17:34:36.618Z,29.96
2022-07-29T17:37:04.540Z,30.06
2022-07-29T17:39:32.773Z,30.06
2022-07-29T17:42:00.522Z,29.99
2022-07-29T17:44:29.555Z,29.97
2022-07-29T17:46:57.522Z,29.68
2022-07-29T17:49:25.425Z,29.55
2022-07-29T17:51:55.487Z,29.55
2022-07-29T17:54:28.316Z,29.40
2022-07-29T17:56:56.345Z,29.44
2022-07-29T17:59:24.375Z,29.38
2022-07-29T18:01:53.499Z,29.44
2022-07-29T18:04:23.329Z,29.29
2022-07-29T18:06:51.141Z,29.32
2022-07-29T18:09:18.892Z,29.34
2022-07-29T18:11:47.482Z,29.13
2022-07-29T18:14:15.132Z,29.18
2022-07-29T18:16:42.848Z,28.97
2022-07-29T18:19:11.976Z,28.47
2022-07-29T18:21:45.907Z,28.14
2022-07-29T18:24:25.241Z,28.21
2022-07-29T18:26:53.184Z,27.89
2022-07-29T18:29:20.959Z,27.62
2022-07-29T18:31:48.683Z,27.34
2022-07-29T18:34:18.058Z,27.40
2022-07-29T18:36:46.752Z,27.15
2022-07-29T18:39:20.494Z,27.05
2022-07-29T18:41:50.661Z,26.87
2022-07-29T18:44:19.332Z,26.92
2022-07-29T18:46:49.942Z,26.80
2022-07-29T18:49:19.277Z,26.79
2022-07-29T18:51:47.170Z,26.57
2022-07-29T18:54:15.323Z,26.48
2022-07-29T18:56:43.079Z,26.32
2022-07-29T18:59:11.428Z,26.20
2022-07-29T19:01:39.288Z,26.25
2022-07-29T19:04:07.431Z,26.30
2022-07-29T19:06:36.569Z,26.08
2022-07-29T19:09:05.228Z,25.88
2022-07-29T19:11:32.919Z,26.09
2022-07-29T19:14:01.196Z,26.14
2022-07-29T19:16:29.773Z,25.94
2022-07-29T19:18:57.666Z,25.96
2022-07-29T19:21:25.464Z,25.89
2022-07-29T19:24:01.907Z,25.85
2022-07-29T19:26:36.512Z,25.66
2022-07-29T19:29:04.678Z,25.68
2022-07-29T19:31:32.575Z,25.58
2022-07-29T19:34:00.404Z,25.60
2022-07-29T19:36:28.508Z,25.47
2022-07-29T19:38:57.593Z,25.38
2022-07-29T19:41:25.351Z,25.32
2022-07-29T19:43:53.406Z,25.29
2022-07-29T19:46:22.076Z,25.22
2022-07-29T19:48:50.046Z,25.23
2022-07-29T19:51:17.929Z,25.05
2022-07-29T19:53:45.726Z,24.99
2022-07-29T19:56:14.824Z,24.93
2022-07-29T19:58:43.926Z,24.94
2022-07-29T20:01:12.325Z,24.82
2022-07-29T20:03:40.974Z,24.63
2022-07-29T20:06:09.156Z,24.52
2022-07-29T20:08:37.122Z,24.40
2022-07-29T20:11:04.900Z,24.24
2022-07-29T20:13:35.293Z,24.18
2022-07-29T20:16:05.722Z,24.11
2022-07-29T20:18:33.798Z,24.05
2022-07-29T20:21:01.656Z,23.98
2022-07-29T20:23:33.490Z,23.91
2022-07-29T20:26:01.555Z,23.78
2022-07-29T20:28:29.441Z,23.74
2022-07-29T20:30:58.631Z,23.78
2022-07-29T20:33:26.476Z,23.70
2022-07-29T20:35:54.499Z,23.63
2022-07-29T20:38:22.177Z,23.57
2022-07-29T20:40:50.744Z,23.62
2022-07-29T20:43:18.431Z,23.59
2022-07-29T20:45:46.074Z,23.61
2022-07-29T20:48:15.247Z,23.70
2022-07-29T20:50:44.952Z,23.56
2022-07-29T20:53:12.840Z,23.33
2022-07-29T20:55:40.514Z,23.29
2022-07-29T20:58:08.407Z,23.31
2022-07-29T21:00:36.110Z,23.17
2022-07-29T21:03:04.450Z,23.25
2022-07-29T21:05:33.913Z,23.20
2022-07-29T21:08:01.589Z,23.15
2022-07-29T21:10:29.617Z,23.21
2022-07-29T21:12:57.472Z,23.17
2022-07-29T21:15:27.157Z,23.06
2022-07-29T21:18:00.580Z,23.08
2022-07-29T21:20:28.829Z,22.99
2022-07-29T21:22:57.997Z,23.04
2022-07-29T21:25:26.548Z,23.06
2022-07-29T21:28:11.647Z,22.98
2022-07-29T21:30:39.340Z,22.95
2022-07-29T21:33:07.311Z,22.84
2022-07-29T21:36:06.896Z,22.93
2022-07-29T21:38:24.058Z,22.88
2022-07-29T21:40:53.561Z,22.91
2022-07-29T21:43:21.710Z,22.89
2022-07-29T21:45:51.162Z,22.96
2022-07-29T21:48:20.320Z,22.89
2022-07-29T21:50:49.084Z,22.83
2022-07-29T21:53:16.892Z,22.81
2022-07-29T21:55:46.414Z,22.68
2022-07-29T21:58:16.413Z,22.68
2022-07-29T22:00:44.960Z,22.60
2022-07-29T22:03:12.797Z,22.79
2022-07-29T22:05:40.596Z,22.77
2022-07-29T22:08:08.733Z,22.70
2022-07-29T22:10:36.671Z,22.62
2022-07-29T22:13:05.830Z,22.62
2022-07-29T22:15:33.578Z,22.65
2022-07-29T22:18:01.947Z,22.62
2022-07-29T22:20:29.785Z,22.61
2022-07-29T22:22:57.497Z,22.54
2022-07-29T22:25:25.211Z,22.65
2022-07-29T22:27:52.916Z,22.73
2022-07-29T22:30:22.067Z,22.62
2022-07-29T22:32:49.756Z,22.63
2022-07-29T22:35:17.605Z,22.59
2022-07-29T22:37:45.363Z,22.64
2022-07-29T22:40:13.245Z,22.69
2022-07-29T22:42:41.146Z,22.73
2022-07-29T22:45:10.631Z,22.74
2022-07-29T22:47:47.981Z,22.71
2022-07-29T22:50:16.885Z,22.65
2022-07-29T22:52:44.617Z,22.70
2022-07-29T22:55:12.429Z,22.61
2022-07-29T22:57:40.148Z,22.68
2022-07-29T23:00:09.150Z,22.58
2022-07-29T23:02:37.340Z,22.59
2022-07-29T23:05:08.624Z,22.63
2022-07-29T23:07:36.378Z,22.48
2022-07-29T23:10:05.571Z,22.47
2022-07-29T23:12:33.220Z,22.45
2022-07-29T23:15:00.952Z,22.33
2022-07-29T23:17:28.614Z,22.24
2022-07-29T23:19:56.357Z,22.27
2022-07-29T23:22:26.023Z,22.21
2022-07-29T23:24:53.710Z,22.18
2022-07-29T23:27:21.528Z,22.19
2022-07-29T23:29:49.211Z,22.12
2022-07-29T23:32:16.857Z,21.99
2022-07-29T23:34:44.548Z,22.01
2022-07-29T23:37:12.209Z,21.92
2022-07-29T23:39:41.268Z,21.95
2022-07-29T23:42:08.937Z,21.81
2022-07-29T23:44:36.597Z,21.55
2022-07-29T23:47:04.630Z,21.56
2022-07-29T23:49:32.424Z,21.40
2022-07-29T23:52:00.145Z,21.44
2022-07-29T23:54:27.821Z,21.41
2022-07-29T23:56:57.848Z,21.24
2022-07-29T23:59:26.096Z,21.21
